createdAt,value
2017-08-24T00:00:09.797Z,936.46
2017-08-24T00:00:37.954Z,936.47
2017-08-24T00:01:06.104Z,936.51
2017-08-24T00:01:34.258Z,936.5
2017-08-24T00:02:02.458Z,936.5
2017-08-24T00:02:30.646Z,936.49
2017-08-24T00:02:58.873Z,936.54
2017-08-24T00:03:26.877Z,936.5
2017-08-24T00:03:55.122Z,936.5
2017-08-24T00:04:23.367Z,936.5
2017-08-24T00:04:51.609Z,936.48
2017-08-24T00:05:19.841Z,936.46
2017-08-24T00:05:48.150Z,936.47
2017-08-24T00:06:16.397Z,936.45
2017-08-24T00:06:44.374Z,936.46
2017-08-24T00:07:12.636Z,936.48
2017-08-24T00:07:40.878Z,936.49
2017-08-24T00:08:09.026Z,936.46
2017-08-24T00:08:37.254Z,936.53
2017-08-24T00:09:05.516Z,936.5
2017-08-24T00:09:33.752Z,936.52
2017-08-24T00:10:01.995Z,936.5
2017-08-24T00:10:30.170Z,936.5
2017-08-24T00:10:58.209Z,936.52
2017-08-24T00:11:26.325Z,936.53
2017-08-24T00:11:54.411Z,936.5
2017-08-24T00:12:22.528Z,936.51
2017-08-24T00:12:50.588Z,936.5
2017-08-24T00:13:18.677Z,936.49
2017-08-24T00:13:46.956Z,936.51
2017-08-24T00:14:15.227Z,936.5
2017-08-24T00:14:43.181Z,936.48
2017-08-24T00:15:11.408Z,936.45
2017-08-24T00:15:39.466Z,936.52
2017-08-24T00:16:07.737Z,936.5
2017-08-24T00:16:35.873Z,936.49
2017-08-24T00:17:03.934Z,936.47
2017-08-24T00:17:32.226Z,936.46
2017-08-24T00:18:00.476Z,936.47
2017-08-24T00:18:28.622Z,936.48
2017-08-24T00:18:56.918Z,936.49
2017-08-24T00:19:25.195Z,936.49
2017-08-24T00:19:53.452Z,936.54
2017-08-24T00:20:21.581Z,936.54
2017-08-24T00:20:49.859Z,936.54
2017-08-24T00:21:17.987Z,936.57
2017-08-24T00:21:46.163Z,936.59
2017-08-24T00:22:14.387Z,936.56
2017-08-24T00:22:42.482Z,936.58
2017-08-24T00:23:10.721Z,936.58
2017-08-24T00:23:38.818Z,936.62
2017-08-24T00:24:07.056Z,936.59
2017-08-24T00:24:35.237Z,936.6
2017-08-24T00:25:03.499Z,936.57
2017-08-24T00:25:31.645Z,936.62
2017-08-24T00:25:59.714Z,936.62
2017-08-24T00:26:27.977Z,936.63
2017-08-24T00:26:56.080Z,936.6
2017-08-24T00:27:24.219Z,936.6
2017-08-24T00:27:52.305Z,936.62
2017-08-24T00:28:20.511Z,936.6
2017-08-24T00:28:48.718Z,936.63
2017-08-24T00:29:16.850Z,936.66
2017-08-24T00:29:45.052Z,936.6
2017-08-24T00:30:13.174Z,936.6
2017-08-24T00:30:41.202Z,936.61
2017-08-24T00:31:09.434Z,936.59
2017-08-24T00:31:37.497Z,936.6
2017-08-24T00:32:05.620Z,936.61
2017-08-24T00:32:33.754Z,936.6
2017-08-24T00:33:01.776Z,936.58
2017-08-24T00:33:30.005Z,936.6
2017-08-24T00:33:58.253Z,936.56
2017-08-24T00:34:26.423Z,936.59
2017-08-24T00:34:54.464Z,936.65
2017-08-24T00:35:22.681Z,936.61
2017-08-24T00:35:50.839Z,936.61
2017-08-24T00:36:18.952Z,936.62
2017-08-24T00:36:47.050Z,936.6
2017-08-24T00:37:15.269Z,936.64
2017-08-24T00:37:43.497Z,936.65
2017-08-24T00:38:11.519Z,936.66
2017-08-24T00:38:39.672Z,936.7
2017-08-24T00:39:07.565Z,936.67
2017-08-24T00:39:35.713Z,936.66
2017-08-24T00:40:03.837Z,936.66
2017-08-24T00:40:31.987Z,936.69
2017-08-24T00:41:00.073Z,936.66
2017-08-24T00:41:27.990Z,936.7
2017-08-24T00:41:56.060Z,936.71
2017-08-24T00:42:24.109Z,936.73
2017-08-24T00:42:52.158Z,936.74
2017-08-24T00:43:20.287Z,936.71
2017-08-24T00:43:48.417Z,936.74
2017-08-24T00:44:16.736Z,936.71
2017-08-24T00:44:44.863Z,936.74
2017-08-24T00:45:12.977Z,936.77
2017-08-24T00:45:41.199Z,936.8
2017-08-24T00:46:09.327Z,936.75
2017-08-24T00:46:37.556Z,936.77
2017-08-24T00:47:05.819Z,936.75
2017-08-24T00:47:34.069Z,936.7
2017-08-24T00:48:02.312Z,936.75
2017-08-24T00:48:30.488Z,936.73
2017-08-24T00:48:58.722Z,936.74
2017-08-24T00:49:27.096Z,936.74
2017-08-24T00:49:55.243Z,936.73
2017-08-24T00:50:23.473Z,936.69
2017-08-24T00:50:51.706Z,936.69
2017-08-24T00:51:19.749Z,936.71
2017-08-24T00:51:47.897Z,936.69
2017-08-24T00:52:16.065Z,936.66
2017-08-24T00:52:44.299Z,936.68
2017-08-24T00:53:12.450Z,936.68
2017-08-24T00:53:40.541Z,936.66
2017-08-24T00:54:08.793Z,936.65
2017-08-24T00:54:37.132Z,936.64
2017-08-24T00:55:05.262Z,936.63
2017-08-24T00:55:33.407Z,936.65
2017-08-24T00:56:01.578Z,936.65
2017-08-24T00:56:29.679Z,936.66
2017-08-24T00:56:57.865Z,936.65
2017-08-24T00:57:26.026Z,936.65
2017-08-24T00:57:54.111Z,936.61
2017-08-24T00:58:22.269Z,936.64
2017-08-24T00:58:50.523Z,936.65
2017-08-24T00:59:18.609Z,936.65
2017-08-24T00:59:46.990Z,936.64
2017-08-24T01:00:15.122Z,936.66
2017-08-24T01:00:43.290Z,936.65
2017-08-24T01:01:11.449Z,936.63
2017-08-24T01:01:39.656Z,936.69
2017-08-24T01:02:07.872Z,936.7
2017-08-24T01:02:35.903Z,936.67
2017-08-24T01:03:03.850Z,936.68
2017-08-24T01:03:32.076Z,936.68
2017-08-24T01:04:00.214Z,936.69
2017-08-24T01:04:28.387Z,936.71
2017-08-24T01:04:56.609Z,936.67
2017-08-24T01:05:24.814Z,936.66
2017-08-24T01:05:52.834Z,936.66
2017-08-24T01:06:21.086Z,936.65
2017-08-24T01:06:49.350Z,936.65
2017-08-24T01:07:17.602Z,936.66
2017-08-24T01:07:45.648Z,936.67
2017-08-24T01:08:13.877Z,936.69
2017-08-24T01:08:42.157Z,936.68
2017-08-24T01:09:10.393Z,936.67
2017-08-24T01:09:38.731Z,936.69
2017-08-24T01:10:06.955Z,936.69
2017-08-24T01:10:35.128Z,936.69
2017-08-24T01:11:03.205Z,936.69
2017-08-24T01:11:31.398Z,936.68
2017-08-24T01:11:59.535Z,936.67
2017-08-24T01:12:27.701Z,936.71
2017-08-24T01:12:55.956Z,936.69
2017-08-24T01:13:24.046Z,936.72
2017-08-24T01:13:52.217Z,936.73
2017-08-24T01:14:20.278Z,936.7
2017-08-24T01:14:48.594Z,936.76
2017-08-24T01:15:16.737Z,936.71
2017-08-24T01:15:44.843Z,936.74
2017-08-24T01:16:13.018Z,936.78
2017-08-24T01:16:41.127Z,936.77
2017-08-24T01:17:09.062Z,936.74
2017-08-24T01:17:37.129Z,936.77
2017-08-24T01:18:05.369Z,936.77
2017-08-24T01:18:33.545Z,936.78
2017-08-24T01:19:01.701Z,936.76
2017-08-24T01:19:29.881Z,936.77
2017-08-24T01:19:58.222Z,936.76
2017-08-24T01:20:26.411Z,936.78
2017-08-24T01:20:54.569Z,936.83
2017-08-24T01:21:22.788Z,936.82
2017-08-24T01:21:51.011Z,936.83
2017-08-24T01:22:19.245Z,936.83
2017-08-24T01:22:47.467Z,936.88
2017-08-24T01:23:15.460Z,936.86
2017-08-24T01:23:43.434Z,936.88
2017-08-24T01:24:11.466Z,936.88
2017-08-24T01:24:39.747Z,936.87
2017-08-24T01:25:08.111Z,936.88
2017-08-24T01:25:36.138Z,936.9
2017-08-24T01:26:04.327Z,936.88
2017-08-24T01:26:32.496Z,936.88
2017-08-24T01:27:00.675Z,936.88
2017-08-24T01:27:28.857Z,936.87
2017-08-24T01:27:56.976Z,936.86
2017-08-24T01:28:25.175Z,936.89
2017-08-24T01:28:53.233Z,936.86
2017-08-24T01:29:21.196Z,936.82
2017-08-24T01:29:49.327Z,936.82
2017-08-24T01:30:17.567Z,936.84
2017-08-24T01:30:45.829Z,936.87
2017-08-24T01:31:14.042Z,936.86
2017-08-24T01:31:42.175Z,936.86
2017-08-24T01:32:10.407Z,936.89
2017-08-24T01:32:38.351Z,936.89
2017-08-24T01:33:06.397Z,936.88
2017-08-24T01:33:34.446Z,936.9
2017-08-24T01:34:02.656Z,936.91
2017-08-24T01:34:30.759Z,936.92
2017-08-24T01:34:59.039Z,936.89
2017-08-24T01:35:27.160Z,936.94
2017-08-24T01:35:55.227Z,936.9
2017-08-24T01:36:23.258Z,936.89
2017-08-24T01:36:51.433Z,936.88
2017-08-24T01:37:19.631Z,936.89
2017-08-24T01:37:47.735Z,936.88
2017-08-24T01:38:15.924Z,936.9
2017-08-24T01:38:44.040Z,936.87
2017-08-24T01:39:12.144Z,936.88
2017-08-24T01:39:40.366Z,936.91
2017-08-24T01:40:08.512Z,936.93
2017-08-24T01:40:36.664Z,936.91
2017-08-24T01:41:04.730Z,936.89
2017-08-24T01:41:32.865Z,936.89
2017-08-24T01:42:01.159Z,936.9
2017-08-24T01:42:29.363Z,936.94
2017-08-24T01:42:57.653Z,936.92
2017-08-24T01:43:25.798Z,936.94
2017-08-24T01:43:53.855Z,936.92
2017-08-24T01:44:22.118Z,936.9
2017-08-24T01:44:50.270Z,936.91
2017-08-24T01:45:18.334Z,936.89
2017-08-24T01:45:46.465Z,936.89
2017-08-24T01:46:14.621Z,936.88
2017-08-24T01:46:42.857Z,936.85
2017-08-24T01:47:11.081Z,936.88
2017-08-24T01:47:39.230Z,936.9
2017-08-24T01:48:07.450Z,936.91
2017-08-24T01:48:35.708Z,936.89
2017-08-24T01:49:03.875Z,936.88
2017-08-24T01:49:31.942Z,936.91
2017-08-24T01:49:59.843Z,936.9
2017-08-24T01:50:28.059Z,936.9
2017-08-24T01:50:56.210Z,936.91
2017-08-24T01:51:24.262Z,936.89
2017-08-24T01:51:52.288Z,936.88
2017-08-24T01:52:20.410Z,936.88
2017-08-24T01:52:48.595Z,936.89
2017-08-24T01:53:16.798Z,936.87
2017-08-24T01:53:44.927Z,936.88
2017-08-24T01:54:13.086Z,936.87
2017-08-24T01:54:41.227Z,936.88
2017-08-24T01:55:09.343Z,936.89
2017-08-24T01:55:37.453Z,936.88
2017-08-24T01:56:05.734Z,936.89
2017-08-24T01:56:33.782Z,936.91
2017-08-24T01:57:02.004Z,936.93
2017-08-24T01:57:30.215Z,936.88
2017-08-24T01:57:58.368Z,936.93
2017-08-24T01:58:26.532Z,936.93
2017-08-24T01:58:54.674Z,936.95
2017-08-24T01:59:22.838Z,936.95
2017-08-24T01:59:51.046Z,936.95
2017-08-24T02:00:19.175Z,936.96
2017-08-24T02:00:47.332Z,936.98
2017-08-24T02:01:15.606Z,936.98
2017-08-24T02:01:43.885Z,936.98
2017-08-24T02:02:12.102Z,937.03
2017-08-24T02:02:40.338Z,936.99
2017-08-24T02:03:08.533Z,936.99
2017-08-24T02:03:36.765Z,937.02
2017-08-24T02:04:04.916Z,936.97
2017-08-24T02:04:33.029Z,936.95
2017-08-24T02:05:01.285Z,936.99
2017-08-24T02:05:29.690Z,936.99
2017-08-24T02:05:57.800Z,936.97
2017-08-24T02:06:25.996Z,937.03
2017-08-24T02:06:54.099Z,937.04
2017-08-24T02:07:22.245Z,937.01
2017-08-24T02:07:50.496Z,937.04
2017-08-24T02:08:18.762Z,937.04
2017-08-24T02:08:46.944Z,936.99
2017-08-24T02:09:14.911Z,937.01
2017-08-24T02:09:42.990Z,937.02
2017-08-24T02:10:10.974Z,937.02
2017-08-24T02:10:39.305Z,937.02
2017-08-24T02:11:07.428Z,937.05
2017-08-24T02:11:35.500Z,937.07
2017-08-24T02:12:03.602Z,937.1
2017-08-24T02:12:31.782Z,937.05
2017-08-24T02:12:59.905Z,937.05
2017-08-24T02:13:28.170Z,937.06
2017-08-24T02:13:56.186Z,937.03
2017-08-24T02:14:24.270Z,937.04
2017-08-24T02:14:52.246Z,937.02
2017-08-24T02:15:20.364Z,937.04
2017-08-24T02:15:48.675Z,937.02
2017-08-24T02:16:16.759Z,937.03
2017-08-24T02:16:45.003Z,937.04
2017-08-24T02:17:13.210Z,937.04
2017-08-24T02:17:41.331Z,937.03
2017-08-24T02:18:09.391Z,937.04
2017-08-24T02:18:37.662Z,937.08
2017-08-24T02:19:05.860Z,937.06
2017-08-24T02:19:34.032Z,937.07
2017-08-24T02:20:02.161Z,937.07
2017-08-24T02:20:30.370Z,937.06
2017-08-24T02:20:58.588Z,937.07
2017-08-24T02:21:26.745Z,937.05
2017-08-24T02:21:54.886Z,937.08
2017-08-24T02:22:23.123Z,937.11
2017-08-24T02:22:51.415Z,937.06
2017-08-24T02:23:19.723Z,937.1
2017-08-24T02:23:48.039Z,937.11
2017-08-24T02:24:16.091Z,937.1
2017-08-24T02:24:44.463Z,937.16
2017-08-24T02:25:12.773Z,937.11
2017-08-24T02:25:41.124Z,937.14
2017-08-24T02:26:09.440Z,937.12
2017-08-24T02:26:37.698Z,937.1
2017-08-24T02:27:05.862Z,937.08
2017-08-24T02:27:34.138Z,937.15
2017-08-24T02:28:02.356Z,937.14
2017-08-24T02:28:30.397Z,937.15
2017-08-24T02:28:58.465Z,937.12
2017-08-24T02:29:26.524Z,937.13
2017-08-24T02:29:54.470Z,937.15
2017-08-24T02:30:22.620Z,937.12
2017-08-24T02:30:50.807Z,937.13
2017-08-24T02:31:18.995Z,937.14
2017-08-24T02:31:47.233Z,937.16
2017-08-24T02:32:15.233Z,937.15
2017-08-24T02:32:43.344Z,937.15
2017-08-24T02:33:11.613Z,937.15
2017-08-24T02:33:39.686Z,937.15
2017-08-24T02:34:07.864Z,937.17
2017-08-24T02:34:36.116Z,937.13
2017-08-24T02:35:04.323Z,937.15
2017-08-24T02:35:32.390Z,937.08
2017-08-24T02:36:00.357Z,937.14
2017-08-24T02:36:28.533Z,937.13
2017-08-24T02:36:56.622Z,937.13
2017-08-24T02:37:24.747Z,937.12
2017-08-24T02:37:52.982Z,937.12
2017-08-24T02:38:21.094Z,937.14
2017-08-24T02:38:49.348Z,937.12
2017-08-24T02:39:17.481Z,937.13
2017-08-24T02:39:45.586Z,937.15
2017-08-24T02:40:13.879Z,937.14
2017-08-24T02:40:42.009Z,937.15
2017-08-24T02:41:10.233Z,937.11
2017-08-24T02:41:38.374Z,937.13
2017-08-24T02:42:06.639Z,937.09
2017-08-24T02:42:34.794Z,937.09
2017-08-24T02:43:02.968Z,937.1
2017-08-24T02:43:31.066Z,937.07
2017-08-24T02:43:59.333Z,937.08
2017-08-24T02:44:27.577Z,937.07
2017-08-24T02:44:55.735Z,937.03
2017-08-24T02:45:23.946Z,937.03
2017-08-24T02:45:52.118Z,937.01
2017-08-24T02:46:20.288Z,937
2017-08-24T02:46:48.384Z,936.98
2017-08-24T02:47:16.545Z,936.96
2017-08-24T02:47:44.572Z,937.01
2017-08-24T02:48:12.853Z,937.01
2017-08-24T02:48:41.101Z,937
2017-08-24T02:49:09.346Z,937.02
2017-08-24T02:49:37.460Z,937
2017-08-24T02:50:05.510Z,937
2017-08-24T02:50:33.565Z,937.05
2017-08-24T02:51:01.892Z,937.03
2017-08-24T02:51:30.127Z,937.04
2017-08-24T02:51:58.153Z,937.05
2017-08-24T02:52:26.320Z,937.03
2017-08-24T02:52:54.556Z,937.05
2017-08-24T02:53:22.850Z,937.02
2017-08-24T02:53:51.019Z,937.04
2017-08-24T02:54:19.269Z,937.02
2017-08-24T02:54:47.410Z,937.01
2017-08-24T02:55:15.646Z,937.01
2017-08-24T02:55:43.801Z,937.02
2017-08-24T02:56:11.938Z,937.05
2017-08-24T02:56:40.094Z,937.05
2017-08-24T02:57:08.195Z,937.09
2017-08-24T02:57:36.403Z,937.03
2017-08-24T02:58:04.676Z,937.03
2017-08-24T02:58:32.893Z,937.06
2017-08-24T02:59:01.154Z,937.06
2017-08-24T02:59:29.329Z,937.05
2017-08-24T02:59:57.406Z,937.06
2017-08-24T03:00:25.542Z,937.05
2017-08-24T03:00:53.571Z,937.03
2017-08-24T03:01:21.873Z,937.03
2017-08-24T03:01:50.095Z,937.03
2017-08-24T03:02:18.059Z,937.03
2017-08-24T03:02:46.251Z,937.04
2017-08-24T03:03:14.397Z,937.02
2017-08-24T03:03:42.584Z,937.02
2017-08-24T03:04:10.740Z,937.02
2017-08-24T03:04:38.987Z,937.01
2017-08-24T03:05:07.275Z,936.98
2017-08-24T03:05:35.329Z,936.99
2017-08-24T03:06:03.585Z,936.97
2017-08-24T03:06:31.910Z,936.95
2017-08-24T03:06:59.981Z,936.93
2017-08-24T03:07:28.124Z,936.95
2017-08-24T03:07:56.062Z,936.94
2017-08-24T03:08:24.303Z,936.97
2017-08-24T03:08:52.361Z,936.97
2017-08-24T03:09:20.607Z,936.97
2017-08-24T03:09:48.735Z,936.96
2017-08-24T03:10:16.929Z,936.98
2017-08-24T03:10:45.167Z,937
2017-08-24T03:11:13.354Z,937
2017-08-24T03:11:41.757Z,937.03
2017-08-24T03:12:09.894Z,937.01
2017-08-24T03:12:37.915Z,937.01
2017-08-24T03:13:05.954Z,936.99
2017-08-24T03:13:34.200Z,936.98
2017-08-24T03:14:02.416Z,937.01
2017-08-24T03:14:30.624Z,937.01
2017-08-24T03:14:58.803Z,936.99
2017-08-24T03:15:26.967Z,937.03
2017-08-24T03:15:54.997Z,936.98
2017-08-24T03:16:23.303Z,936.98
2017-08-24T03:16:51.447Z,936.99
2017-08-24T03:17:19.496Z,936.99
2017-08-24T03:17:47.674Z,937
2017-08-24T03:18:15.825Z,936.97
2017-08-24T03:18:43.779Z,936.96
2017-08-24T03:19:11.943Z,936.95
2017-08-24T03:19:39.974Z,936.97
2017-08-24T03:20:08.023Z,936.95
2017-08-24T03:20:35.996Z,936.94
2017-08-24T03:21:04.128Z,936.93
2017-08-24T03:21:32.596Z,936.92
2017-08-24T03:22:00.833Z,936.94
2017-08-24T03:22:28.920Z,936.93
2017-08-24T03:22:57.039Z,936.94
2017-08-24T03:23:25.132Z,936.9
2017-08-24T03:23:53.422Z,936.93
2017-08-24T03:24:21.720Z,936.91
2017-08-24T03:24:49.919Z,936.92
2017-08-24T03:25:18.159Z,936.93
2017-08-24T03:25:46.207Z,936.9
2017-08-24T03:26:14.434Z,936.86
2017-08-24T03:26:42.690Z,936.88
2017-08-24T03:27:10.750Z,936.87
2017-08-24T03:27:38.841Z,936.85
2017-08-24T03:28:06.995Z,936.88
2017-08-24T03:28:35.087Z,936.84
2017-08-24T03:29:03.269Z,936.88
2017-08-24T03:29:31.519Z,936.86
2017-08-24T03:29:59.679Z,936.87
2017-08-24T03:30:27.754Z,936.85
2017-08-24T03:30:55.971Z,936.89
2017-08-24T03:31:24.157Z,936.84
2017-08-24T03:31:52.332Z,936.89
2017-08-24T03:32:20.470Z,936.91
2017-08-24T03:32:48.604Z,936.88
2017-08-24T03:33:16.805Z,936.9
2017-08-24T03:33:45.028Z,936.88
2017-08-24T03:34:13.216Z,936.85
2017-08-24T03:34:41.284Z,936.86
2017-08-24T03:35:09.488Z,936.86
2017-08-24T03:35:37.566Z,936.87
2017-08-24T03:36:05.674Z,936.85
2017-08-24T03:36:33.706Z,936.85
2017-08-24T03:37:01.786Z,936.83
2017-08-24T03:37:29.939Z,936.84
2017-08-24T03:37:58.161Z,936.8
2017-08-24T03:38:26.303Z,936.81
2017-08-24T03:38:54.407Z,936.82
2017-08-24T03:39:22.442Z,936.78
2017-08-24T03:39:50.534Z,936.8
2017-08-24T03:40:18.769Z,936.8
2017-08-24T03:40:46.891Z,936.8
2017-08-24T03:41:15.145Z,936.79
2017-08-24T03:41:43.375Z,936.79
2017-08-24T03:42:11.609Z,936.81
2017-08-24T03:42:39.805Z,936.82
2017-08-24T03:43:07.757Z,936.75
2017-08-24T03:43:35.982Z,936.8
2017-08-24T03:44:04.173Z,936.79
2017-08-24T03:44:32.273Z,936.79
2017-08-24T03:45:00.480Z,936.77
2017-08-24T03:45:28.585Z,936.75
2017-08-24T03:45:56.688Z,936.78
2017-08-24T03:46:24.901Z,936.75
2017-08-24T03:46:53.104Z,936.72
2017-08-24T03:47:21.281Z,936.73
2017-08-24T03:47:49.371Z,936.75
2017-08-24T03:48:17.508Z,936.72
2017-08-24T03:48:45.591Z,936.73
2017-08-24T03:49:13.842Z,936.74
2017-08-24T03:49:42.075Z,936.76
2017-08-24T03:50:10.184Z,936.75
2017-08-24T03:50:38.326Z,936.73
2017-08-24T03:51:06.539Z,936.75
2017-08-24T03:51:34.617Z,936.77
2017-08-24T03:52:02.883Z,936.75
2017-08-24T03:52:30.931Z,936.75
2017-08-24T03:52:59.007Z,936.75
2017-08-24T03:53:27.051Z,936.77
2017-08-24T03:53:55.254Z,936.75
2017-08-24T03:54:23.484Z,936.77
2017-08-24T03:54:51.698Z,936.77
2017-08-24T03:55:19.842Z,936.72
2017-08-24T03:55:48.006Z,936.74
2017-08-24T03:56:16.223Z,936.78
2017-08-24T03:56:44.408Z,936.75
2017-08-24T03:57:12.744Z,936.72
2017-08-24T03:57:40.833Z,936.71
2017-08-24T03:58:09.045Z,936.77
2017-08-24T03:58:37.110Z,936.77
2017-08-24T03:59:05.171Z,936.75
2017-08-24T03:59:33.210Z,936.74
2017-08-24T04:00:01.335Z,936.75
2017-08-24T04:00:29.548Z,936.74
2017-08-24T04:00:57.688Z,936.75
2017-08-24T04:01:25.938Z,936.73
2017-08-24T04:01:54.138Z,936.73
2017-08-24T04:02:22.309Z,936.7
2017-08-24T04:02:50.475Z,936.71
2017-08-24T04:03:18.726Z,936.7
2017-08-24T04:03:46.920Z,936.69
2017-08-24T04:04:15.143Z,936.7
2017-08-24T04:04:43.186Z,936.7
2017-08-24T04:05:11.306Z,936.69
2017-08-24T04:05:39.505Z,936.7
2017-08-24T04:06:07.614Z,936.71
2017-08-24T04:06:35.679Z,936.69
2017-08-24T04:07:04.037Z,936.7
2017-08-24T04:07:32.066Z,936.72
2017-08-24T04:08:00.321Z,936.68
2017-08-24T04:08:28.597Z,936.68
2017-08-24T04:08:56.850Z,936.68
2017-08-24T04:09:24.939Z,936.66
2017-08-24T04:09:53.200Z,936.67
2017-08-24T04:10:21.428Z,936.66
2017-08-24T04:10:49.482Z,936.7
2017-08-24T04:11:17.667Z,936.68
2017-08-24T04:11:45.745Z,936.72
2017-08-24T04:12:13.845Z,936.72
2017-08-24T04:12:42.091Z,936.71
2017-08-24T04:13:10.384Z,936.72
2017-08-24T04:13:38.689Z,936.73
2017-08-24T04:14:06.858Z,936.69
2017-08-24T04:14:34.915Z,936.71
2017-08-24T04:15:03.105Z,936.68
2017-08-24T04:15:31.118Z,936.69
2017-08-24T04:15:59.259Z,936.68
2017-08-24T04:16:27.500Z,936.68
2017-08-24T04:16:55.474Z,936.69
2017-08-24T04:17:23.710Z,936.73
2017-08-24T04:17:51.926Z,936.74
2017-08-24T04:18:20.086Z,936.71
2017-08-24T04:18:48.310Z,936.74
2017-08-24T04:19:16.482Z,936.75
2017-08-24T04:19:44.692Z,936.74
2017-08-24T04:20:12.821Z,936.75
2017-08-24T04:20:41.024Z,936.71
2017-08-24T04:21:09.217Z,936.7
2017-08-24T04:21:37.512Z,936.71
2017-08-24T04:22:05.715Z,936.71
2017-08-24T04:22:33.945Z,936.69
2017-08-24T04:23:02.092Z,936.69
2017-08-24T04:23:30.304Z,936.73
2017-08-24T04:23:58.397Z,936.71
2017-08-24T04:24:26.522Z,936.72
2017-08-24T04:24:54.602Z,936.73
2017-08-24T04:25:22.873Z,936.74
2017-08-24T04:25:51.156Z,936.73
2017-08-24T04:26:19.220Z,936.72
2017-08-24T04:26:47.343Z,936.69
2017-08-24T04:27:15.532Z,936.67
2017-08-24T04:27:43.874Z,936.69
2017-08-24T04:28:12.108Z,936.67
2017-08-24T04:28:40.215Z,936.66
2017-08-24T04:29:08.464Z,936.61
2017-08-24T04:29:36.738Z,936.64
2017-08-24T04:30:04.999Z,936.6
2017-08-24T04:30:33.276Z,936.64
2017-08-24T04:31:01.493Z,936.61
2017-08-24T04:31:29.684Z,936.61
2017-08-24T04:31:57.803Z,936.63
2017-08-24T04:32:26.100Z,936.61
2017-08-24T04:32:54.236Z,936.64
2017-08-24T04:33:22.336Z,936.68
2017-08-24T04:33:50.522Z,936.62
2017-08-24T04:34:18.492Z,936.6
2017-08-24T04:34:46.554Z,936.69
2017-08-24T04:35:14.594Z,936.62
2017-08-24T04:35:42.684Z,936.63
2017-08-24T04:36:10.931Z,936.63
2017-08-24T04:36:39.133Z,936.69
2017-08-24T04:37:07.159Z,936.67
2017-08-24T04:37:35.466Z,936.65
2017-08-24T04:38:03.512Z,936.66
2017-08-24T04:38:31.523Z,936.64
2017-08-24T04:38:59.667Z,936.62
2017-08-24T04:39:27.817Z,936.63
2017-08-24T04:39:55.950Z,936.59
2017-08-24T04:40:24.074Z,936.6
2017-08-24T04:40:52.246Z,936.58
2017-08-24T04:41:20.506Z,936.62
2017-08-24T04:41:48.690Z,936.59
2017-08-24T04:42:16.964Z,936.64
2017-08-24T04:42:45.219Z,936.65
2017-08-24T04:43:13.412Z,936.6
2017-08-24T04:43:41.452Z,936.69
2017-08-24T04:44:09.609Z,936.63
2017-08-24T04:44:37.747Z,936.62
2017-08-24T04:45:05.969Z,936.61
2017-08-24T04:45:34.120Z,936.62
2017-08-24T04:46:02.300Z,936.6
2017-08-24T04:46:30.567Z,936.61
2017-08-24T04:46:58.702Z,936.63
2017-08-24T04:47:26.786Z,936.6
2017-08-24T04:47:54.971Z,936.59
2017-08-24T04:48:23.218Z,936.63
2017-08-24T04:48:51.381Z,936.61
2017-08-24T04:49:19.519Z,936.63
2017-08-24T04:49:47.591Z,936.57
2017-08-24T04:50:15.752Z,936.58
2017-08-24T04:50:43.748Z,936.65
2017-08-24T04:51:12.017Z,936.59
2017-08-24T04:51:40.281Z,936.62
2017-08-24T04:52:08.536Z,936.6
2017-08-24T04:52:36.794Z,936.62
2017-08-24T04:53:05.133Z,936.64
2017-08-24T04:53:33.214Z,936.6
2017-08-24T04:54:01.503Z,936.62
2017-08-24T04:54:29.773Z,936.62
2017-08-24T04:54:57.916Z,936.62
2017-08-24T04:55:26.213Z,936.59
2017-08-24T04:55:54.350Z,936.57
2017-08-24T04:56:22.583Z,936.59
2017-08-24T04:56:50.824Z,936.54
2017-08-24T04:57:18.903Z,936.56
2017-08-24T04:57:47.143Z,936.56
2017-08-24T04:58:15.339Z,936.53
2017-08-24T04:58:43.567Z,936.52
2017-08-24T04:59:11.702Z,936.52
2017-08-24T04:59:39.730Z,936.53
2017-08-24T05:00:07.712Z,936.52
2017-08-24T05:00:35.982Z,936.51
2017-08-24T05:01:04.041Z,936.49
2017-08-24T05:01:32.187Z,936.52
2017-08-24T05:02:00.419Z,936.54
2017-08-24T05:02:28.680Z,936.49
2017-08-24T05:02:56.936Z,936.49
2017-08-24T05:03:25.151Z,936.48
2017-08-24T05:03:53.377Z,936.47
2017-08-24T05:04:21.482Z,936.47
2017-08-24T05:04:49.775Z,936.44
2017-08-24T05:05:17.729Z,936.46
2017-08-24T05:05:45.795Z,936.48
2017-08-24T05:06:13.866Z,936.5
2017-08-24T05:06:41.835Z,936.49
2017-08-24T05:07:10.092Z,936.51
2017-08-24T05:07:38.294Z,936.48
2017-08-24T05:08:06.382Z,936.52
2017-08-24T05:08:34.651Z,936.5
2017-08-24T05:09:02.845Z,936.48
2017-08-24T05:09:31.131Z,936.46
2017-08-24T05:09:59.349Z,936.46
2017-08-24T05:10:27.557Z,936.44
2017-08-24T05:10:55.697Z,936.44
2017-08-24T05:11:23.993Z,936.45
2017-08-24T05:11:52.276Z,936.48
2017-08-24T05:12:20.416Z,936.46
2017-08-24T05:12:48.668Z,936.47
2017-08-24T05:13:16.989Z,936.45
2017-08-24T05:13:45.099Z,936.42
2017-08-24T05:14:13.154Z,936.41
2017-08-24T05:14:41.444Z,936.41
2017-08-24T05:15:09.620Z,936.41
2017-08-24T05:15:37.876Z,936.4
2017-08-24T05:16:06.143Z,936.43
2017-08-24T05:16:34.255Z,936.39
2017-08-24T05:17:02.393Z,936.41
2017-08-24T05:17:30.544Z,936.43
2017-08-24T05:17:58.707Z,936.42
2017-08-24T05:18:26.926Z,936.43
2017-08-24T05:18:55.085Z,936.42
2017-08-24T05:19:23.249Z,936.45
2017-08-24T05:19:51.285Z,936.43
2017-08-24T05:20:19.483Z,936.42
2017-08-24T05:20:47.742Z,936.46
2017-08-24T05:21:16.049Z,936.45
2017-08-24T05:21:44.028Z,936.41
2017-08-24T05:22:12.187Z,936.41
2017-08-24T05:22:40.329Z,936.41
2017-08-24T05:23:08.508Z,936.42
2017-08-24T05:23:36.695Z,936.39
2017-08-24T05:24:04.807Z,936.42
2017-08-24T05:24:33.113Z,936.4
2017-08-24T05:25:01.233Z,936.39
2017-08-24T05:25:29.480Z,936.39
2017-08-24T05:25:57.659Z,936.41
2017-08-24T05:26:25.830Z,936.41
2017-08-24T05:26:54.004Z,936.39
2017-08-24T05:27:22.267Z,936.4
2017-08-24T05:27:50.438Z,936.42
2017-08-24T05:28:18.787Z,936.42
2017-08-24T05:28:47.072Z,936.43
2017-08-24T05:29:15.274Z,936.46
2017-08-24T05:29:43.264Z,936.46
2017-08-24T05:30:11.517Z,936.43
2017-08-24T05:30:39.800Z,936.41
2017-08-24T05:31:07.915Z,936.4
2017-08-24T05:31:36.046Z,936.4
2017-08-24T05:32:04.196Z,936.4
2017-08-24T05:32:32.467Z,936.39
2017-08-24T05:33:00.604Z,936.39
2017-08-24T05:33:28.801Z,936.37
2017-08-24T05:33:57.029Z,936.4
2017-08-24T05:34:25.145Z,936.37
2017-08-24T05:34:53.416Z,936.38
2017-08-24T05:35:21.649Z,936.4
2017-08-24T05:35:49.924Z,936.41
2017-08-24T05:36:18.039Z,936.44
2017-08-24T05:36:46.188Z,936.41
2017-08-24T05:37:14.399Z,936.4
2017-08-24T05:37:42.598Z,936.41
2017-08-24T05:38:10.649Z,936.38
2017-08-24T05:38:38.979Z,936.39
2017-08-24T05:39:07.321Z,936.38
2017-08-24T05:39:35.577Z,936.39
2017-08-24T05:40:03.831Z,936.38
2017-08-24T05:40:32.067Z,936.35
2017-08-24T05:41:00.326Z,936.4
2017-08-24T05:41:28.502Z,936.4
2017-08-24T05:41:56.656Z,936.41
2017-08-24T05:42:24.867Z,936.39
2017-08-24T05:42:52.975Z,936.37
2017-08-24T05:43:21.237Z,936.44
2017-08-24T05:43:49.461Z,936.4
2017-08-24T05:44:17.619Z,936.43
2017-08-24T05:44:45.876Z,936.4
2017-08-24T05:45:13.829Z,936.43
2017-08-24T05:45:42.110Z,936.44
2017-08-24T05:46:10.238Z,936.43
2017-08-24T05:46:38.375Z,936.44
2017-08-24T05:47:06.532Z,936.42
2017-08-24T05:47:34.711Z,936.4
2017-08-24T05:48:02.944Z,936.42
2017-08-24T05:48:31.209Z,936.41
2017-08-24T05:48:59.346Z,936.45
2017-08-24T05:49:27.525Z,936.51
2017-08-24T05:49:55.589Z,936.48
2017-08-24T05:50:23.850Z,936.45
2017-08-24T05:50:51.935Z,936.48
2017-08-24T05:51:20.083Z,936.48
2017-08-24T05:51:48.184Z,936.47
2017-08-24T05:52:16.432Z,936.44
2017-08-24T05:52:44.693Z,936.47